DWB weather

Soalala Airport
Soalala, Mahajanga, Madagascar

Public forecast

Using degrees Celsius for public forecast. Weather courtesy of forecast.io.

Current aviation weather report (METAR) for Soalala Airport

Report is more than 6 hours old.

Retrieved 2013/12/07 03:00 UTC (6 years ago):

FMNO 070300Z 25004KT 9999 SCT02CB 24/22 Q1011

Closest aviation forecast (TAF) to Soalala Airport

Closest forecast is Amborovy Airport, 63.0 nm (116.6 km) ENE. Retrieved 2019/10/18 18:00 UTC (22 minutes ago):

TAF FMNM 181700Z 1818/1918 12012KT 9999 FEW020 SCT040 BECMG 1912/1915 00000KT